sensor_id;sensor_type;location;lat;lon;timestamp;P1;durP1;ratioP1;P2;durP2;ratioP2
26113;SDS011;13966;48.828;9.064;2024-02-21T00:01:36;22.58;;;8.18;;
26113;SDS011;13966;48.828;9.064;2024-02-21T00:04:02;18.05;;;8.18;;
26113;SDS011;13966;48.828;9.064;2024-02-21T00:06:28;15.63;;;7.63;;
26113;SDS011;13966;48.828;9.064;2024-02-21T00:08:54;15.02;;;6.93;;
26113;SDS011;13966;48.828;9.064;2024-02-21T00:11:20;16.60;;;7.15;;
26113;SDS011;13966;48.828;9.064;2024-02-21T00:13:47;19.83;;;7.20;;
26113;SDS011;13966;48.828;9.064;2024-02-21T00:16:13;21.10;;;6.38;;
26113;SDS011;13966;48.828;9.064;2024-02-21T00:18:40;22.13;;;6.78;;
26113;SDS011;13966;48.828;9.064;2024-02-21T00:21:06;15.38;;;6.22;;
26113;SDS011;13966;48.828;9.064;2024-02-21T00:23:32;17.88;;;6.57;;
26113;SDS011;13966;48.828;9.064;2024-02-21T00:25:58;19.30;;;5.78;;
26113;SDS011;13966;48.828;9.064;2024-02-21T00:28:24;14.02;;;4.95;;
26113;SDS011;13966;48.828;9.064;2024-02-21T00:30:50;15.73;;;5.78;;
26113;SDS011;13966;48.828;9.064;2024-02-21T00:33:18;12.07;;;4.70;;
26113;SDS011;13966;48.828;9.064;2024-02-21T00:35:44;18.52;;;6.30;;
26113;SDS011;13966;48.828;9.064;2024-02-21T00:38:10;15.45;;;6.05;;
26113;SDS011;13966;48.828;9.064;2024-02-21T00:40:36;19.80;;;5.70;;
26113;SDS011;13966;48.828;9.064;2024-02-21T00:43:02;13.15;;;5.40;;
26113;SDS011;13966;48.828;9.064;2024-02-21T00:45:28;15.13;;;5.75;;
26113;SDS011;13966;48.828;9.064;2024-02-21T00:47:54;11.25;;;4.85;;
26113;SDS011;13966;48.828;9.064;2024-02-21T00:50:20;12.25;;;4.47;;
26113;SDS011;13966;48.828;9.064;2024-02-21T00:52:46;13.02;;;5.07;;
26113;SDS011;13966;48.828;9.064;2024-02-21T00:55:13;12.95;;;5.18;;
26113;SDS011;13966;48.828;9.064;2024-02-21T00:57:39;17.02;;;4.95;;
26113;SDS011;13966;48.828;9.064;2024-02-21T01:00:05;13.80;;;5.15;;
26113;SDS011;13966;48.828;9.064;2024-02-21T01:02:33;13.45;;;5.15;;
26113;SDS011;13966;48.828;9.064;2024-02-21T01:04:59;13.13;;;5.43;;
26113;SDS011;13966;48.828;9.064;2024-02-21T01:07:26;13.80;;;5.45;;
26113;SDS011;13966;48.828;9.064;2024-02-21T01:09:52;9.70;;;5.25;;
26113;SDS011;13966;48.828;9.064;2024-02-21T01:12:18;14.20;;;5.22;;
26113;SDS011;13966;48.828;9.064;2024-02-21T01:14:44;14.98;;;5.20;;
26113;SDS011;13966;48.828;9.064;2024-02-21T01:17:14;11.85;;;4.53;;
26113;SDS011;13966;48.828;9.064;2024-02-21T01:19:40;17.65;;;5.18;;
26113;SDS011;13966;48.828;9.064;2024-02-21T01:22:06;13.85;;;4.82;;
26113;SDS011;13966;48.828;9.064;2024-02-21T01:24:32;12.65;;;4.15;;
26113;SDS011;13966;48.828;9.064;2024-02-21T01:26:58;11.98;;;4.20;;
26113;SDS011;13966;48.828;9.064;2024-02-21T01:29:24;10.48;;;3.97;;
26113;SDS011;13966;48.828;9.064;2024-02-21T01:31:51;17.88;;;5.20;;
26113;SDS011;13966;48.828;9.064;2024-02-21T01:34:17;12.43;;;4.78;;
26113;SDS011;13966;48.828;9.064;2024-02-21T01:36:43;16.42;;;4.93;;
26113;SDS011;13966;48.828;9.064;2024-02-21T01:39:09;11.50;;;3.97;;
26113;SDS011;13966;48.828;9.064;2024-02-21T01:41:35;14.20;;;4.07;;
26113;SDS011;13966;48.828;9.064;2024-02-21T01:44:01;12.73;;;4.38;;
26113;SDS011;13966;48.828;9.064;2024-02-21T01:46:27;13.05;;;3.88;;
26113;SDS011;13966;48.828;9.064;2024-02-21T01:48:55;15.50;;;4.25;;
26113;SDS011;13966;48.828;9.064;2024-02-21T01:51:21;15.40;;;4.38;;
26113;SDS011;13966;48.828;9.064;2024-02-21T01:53:47;12.70;;;4.22;;
26113;SDS011;13966;48.828;9.064;2024-02-21T01:56:13;11.77;;;4.25;;
26113;SDS011;13966;48.828;9.064;2024-02-21T01:58:40;10.80;;;4.45;;
26113;SDS011;13966;48.828;9.064;2024-02-21T02:01:08;15.35;;;4.03;;
26113;SDS011;13966;48.828;9.064;2024-02-21T02:03:34;12.15;;;3.92;;
26113;SDS011;13966;48.828;9.064;2024-02-21T02:06:00;10.88;;;3.70;;
26113;SDS011;13966;48.828;9.064;2024-02-21T02:08:26;12.88;;;4.20;;
26113;SDS011;13966;48.828;9.064;2024-02-21T02:10:52;12.20;;;4.43;;
26113;SDS011;13966;48.828;9.064;2024-02-21T02:13:18;13.23;;;4.28;;
26113;SDS011;13966;48.828;9.064;2024-02-21T02:15:45;10.15;;;3.67;;
26113;SDS011;13966;48.828;9.064;2024-02-21T02:18:13;20.42;;;4.50;;
26113;SDS011;13966;48.828;9.064;2024-02-21T02:20:39;14.30;;;3.78;;
26113;SDS011;13966;48.828;9.064;2024-02-21T02:23:12;15.25;;;4.00;;
26113;SDS011;13966;48.828;9.064;2024-02-21T02:25:39;10.90;;;3.53;;
26113;SDS011;13966;48.828;9.064;2024-02-21T02:28:06;13.48;;;3.70;;
26113;SDS011;13966;48.828;9.064;2024-02-21T02:30:33;8.88;;;3.53;;
26113;SDS011;13966;48.828;9.064;2024-02-21T02:32:59;11.82;;;3.42;;
26113;SDS011;13966;48.828;9.064;2024-02-21T02:35:25;10.48;;;3.83;;
26113;SDS011;13966;48.828;9.064;2024-02-21T02:37:51;11.00;;;4.03;;
26113;SDS011;13966;48.828;9.064;2024-02-21T02:40:18;11.05;;;3.40;;
26113;SDS011;13966;48.828;9.064;2024-02-21T02:42:44;13.40;;;3.95;;
26113;SDS011;13966;48.828;9.064;2024-02-21T02:45:10;10.10;;;3.72;;
26113;SDS011;13966;48.828;9.064;2024-02-21T02:47:36;13.57;;;3.25;;
26113;SDS011;13966;48.828;9.064;2024-02-21T02:50:02;11.35;;;3.33;;
26113;SDS011;13966;48.828;9.064;2024-02-21T02:52:28;10.35;;;3.33;;
26113;SDS011;13966;48.828;9.064;2024-02-21T02:54:54;12.27;;;3.50;;
26113;SDS011;13966;48.828;9.064;2024-02-21T02:57:21;9.45;;;3.08;;
26113;SDS011;13966;48.828;9.064;2024-02-21T02:59:50;6.38;;;3.20;;
26113;SDS011;13966;48.828;9.064;2024-02-21T03:02:16;13.30;;;3.78;;
26113;SDS011;13966;48.828;9.064;2024-02-21T03:04:42;7.75;;;3.08;;
26113;SDS011;13966;48.828;9.064;2024-02-21T03:07:08;11.35;;;3.63;;
26113;SDS011;13966;48.828;9.064;2024-02-21T03:09:36;12.60;;;3.58;;
26113;SDS011;13966;48.828;9.064;2024-02-21T03:12:02;10.32;;;3.33;;
26113;SDS011;13966;48.828;9.064;2024-02-21T03:14:29;8.30;;;3.20;;
26113;SDS011;13966;48.828;9.064;2024-02-21T03:16:55;9.95;;;3.65;;
26113;SDS011;13966;48.828;9.064;2024-02-21T03:19:21;9.40;;;3.22;;
26113;SDS011;13966;48.828;9.064;2024-02-21T03:21:47;10.23;;;3.65;;
26113;SDS011;13966;48.828;9.064;2024-02-21T03:24:14;9.05;;;3.50;;
26113;SDS011;13966;48.828;9.064;2024-02-21T03:26:40;11.05;;;4.10;;
26113;SDS011;13966;48.828;9.064;2024-02-21T03:29:07;11.65;;;3.15;;
26113;SDS011;13966;48.828;9.064;2024-02-21T03:31:34;10.35;;;3.35;;
26113;SDS011;13966;48.828;9.064;2024-02-21T03:34:00;14.65;;;3.55;;
26113;SDS011;13966;48.828;9.064;2024-02-21T03:36:26;13.13;;;3.35;;
26113;SDS011;13966;48.828;9.064;2024-02-21T03:38:52;11.15;;;3.65;;
26113;SDS011;13966;48.828;9.064;2024-02-21T03:41:19;9.13;;;3.55;;
26113;SDS011;13966;48.828;9.064;2024-02-21T03:43:45;11.07;;;4.00;;
26113;SDS011;13966;48.828;9.064;2024-02-21T03:46:11;9.32;;;3.55;;
26113;SDS011;13966;48.828;9.064;2024-02-21T03:48:37;10.48;;;3.55;;
26113;SDS011;13966;48.828;9.064;2024-02-21T03:51:03;16.83;;;3.83;;
26113;SDS011;13966;48.828;9.064;2024-02-21T03:53:29;11.13;;;3.72;;
26113;SDS011;13966;48.828;9.064;2024-02-21T03:55:56;12.70;;;4.03;;
26113;SDS011;13966;48.828;9.064;2024-02-21T03:58:24;10.35;;;3.50;;
26113;SDS011;13966;48.828;9.064;2024-02-21T04:00:50;14.60;;;4.35;;
26113;SDS011;13966;48.828;9.064;2024-02-21T04:03:17;14.50;;;3.58;;
26113;SDS011;13966;48.828;9.064;2024-02-21T04:05:43;14.05;;;3.90;;
26113;SDS011;13966;48.828;9.064;2024-02-21T04:08:09;12.60;;;3.28;;
26113;SDS011;13966;48.828;9.064;2024-02-21T04:10:35;11.48;;;3.60;;
26113;SDS011;13966;48.828;9.064;2024-02-21T04:13:01;10.25;;;3.50;;
26113;SDS011;13966;48.828;9.064;2024-02-21T04:15:27;8.82;;;3.63;;
26113;SDS011;13966;48.828;9.064;2024-02-21T04:17:53;11.70;;;3.67;;
26113;SDS011;13966;48.828;9.064;2024-02-21T04:20:19;11.60;;;3.33;;
26113;SDS011;13966;48.828;9.064;2024-02-21T04:22:45;12.00;;;3.78;;
26113;SDS011;13966;48.828;9.064;2024-02-21T04:25:11;11.40;;;3.42;;
26113;SDS011;13966;48.828;9.064;2024-02-21T04:27:38;14.63;;;3.95;;
26113;SDS011;13966;48.828;9.064;2024-02-21T04:30:04;15.40;;;3.90;;
26113;SDS011;13966;48.828;9.064;2024-02-21T04:32:30;16.00;;;3.95;;
26113;SDS011;13966;48.828;9.064;2024-02-21T04:34:56;11.10;;;3.80;;
26113;SDS011;13966;48.828;9.064;2024-02-21T04:37:22;10.93;;;3.53;;
26113;SDS011;13966;48.828;9.064;2024-02-21T04:39:49;13.20;;;3.60;;
26113;SDS011;13966;48.828;9.064;2024-02-21T04:42:15;12.38;;;3.90;;
26113;SDS011;13966;48.828;9.064;2024-02-21T04:44:41;10.10;;;4.03;;
26113;SDS011;13966;48.828;9.064;2024-02-21T04:47:07;9.10;;;3.53;;
26113;SDS011;13966;48.828;9.064;2024-02-21T04:49:33;11.48;;;4.10;;
26113;SDS011;13966;48.828;9.064;2024-02-21T04:51:59;9.43;;;3.47;;
26113;SDS011;13966;48.828;9.064;2024-02-21T04:54:25;11.57;;;3.75;;
26113;SDS011;13966;48.828;9.064;2024-02-21T04:56:51;11.15;;;4.13;;
26113;SDS011;13966;48.828;9.064;2024-02-21T04:59:17;10.60;;;4.25;;
26113;SDS011;13966;48.828;9.064;2024-02-21T05:01:43;13.50;;;3.80;;
26113;SDS011;13966;48.828;9.064;2024-02-21T05:04:09;12.95;;;4.18;;
26113;SDS011;13966;48.828;9.064;2024-02-21T05:06:39;10.05;;;3.88;;
26113;SDS011;13966;48.828;9.064;2024-02-21T05:09:05;9.93;;;3.22;;
26113;SDS011;13966;48.828;9.064;2024-02-21T05:11:31;12.52;;;4.15;;
26113;SDS011;13966;48.828;9.064;2024-02-21T05:13:57;11.80;;;4.10;;
26113;SDS011;13966;48.828;9.064;2024-02-21T05:16:23;10.60;;;3.80;;
26113;SDS011;13966;48.828;9.064;2024-02-21T05:18:49;11.07;;;4.50;;
26113;SDS011;13966;48.828;9.064;2024-02-21T05:21:15;6.60;;;3.83;;
26113;SDS011;13966;48.828;9.064;2024-02-21T05:23:41;13.35;;;4.15;;
26113;SDS011;13966;48.828;9.064;2024-02-21T05:26:07;11.30;;;4.03;;
26113;SDS011;13966;48.828;9.064;2024-02-21T05:28:33;9.52;;;3.80;;
26113;SDS011;13966;48.828;9.064;2024-02-21T05:30:59;8.93;;;3.97;;
26113;SDS011;13966;48.828;9.064;2024-02-21T05:33:25;10.90;;;3.25;;
26113;SDS011;13966;48.828;9.064;2024-02-21T05:35:52;11.25;;;3.65;;
26113;SDS011;13966;48.828;9.064;2024-02-21T05:38:18;15.23;;;3.58;;
26113;SDS011;13966;48.828;9.064;2024-02-21T05:40:44;7.47;;;3.47;;
26113;SDS011;13966;48.828;9.064;2024-02-21T05:43:10;10.80;;;3.53;;
26113;SDS011;13966;48.828;9.064;2024-02-21T05:45:37;8.82;;;3.45;;
26113;SDS011;13966;48.828;9.064;2024-02-21T05:48:03;12.00;;;3.53;;
26113;SDS011;13966;48.828;9.064;2024-02-21T05:50:30;8.88;;;3.35;;
26113;SDS011;13966;48.828;9.064;2024-02-21T05:52:57;10.30;;;3.45;;
26113;SDS011;13966;48.828;9.064;2024-02-21T05:55:23;17.13;;;3.53;;
26113;SDS011;13966;48.828;9.064;2024-02-21T05:57:53;15.13;;;3.85;;
26113;SDS011;13966;48.828;9.064;2024-02-21T06:00:19;9.02;;;3.63;;
26113;SDS011;13966;48.828;9.064;2024-02-21T06:02:45;12.88;;;3.17;;
26113;SDS011;13966;48.828;9.064;2024-02-21T06:05:11;10.82;;;3.80;;
26113;SDS011;13966;48.828;9.064;2024-02-21T06:07:38;12.20;;;4.03;;
26113;SDS011;13966;48.828;9.064;2024-02-21T06:10:04;14.98;;;3.97;;
26113;SDS011;13966;48.828;9.064;2024-02-21T06:12:30;9.65;;;3.13;;
26113;SDS011;13966;48.828;9.064;2024-02-21T06:14:56;13.10;;;3.10;;
26113;SDS011;13966;48.828;9.064;2024-02-21T06:17:22;6.55;;;2.88;;
26113;SDS011;13966;48.828;9.064;2024-02-21T06:19:48;11.45;;;3.42;;
26113;SDS011;13966;48.828;9.064;2024-02-21T06:22:14;11.32;;;3.17;;
26113;SDS011;13966;48.828;9.064;2024-02-21T06:24:40;7.22;;;2.88;;
26113;SDS011;13966;48.828;9.064;2024-02-21T06:27:06;8.90;;;3.40;;
26113;SDS011;13966;48.828;9.064;2024-02-21T06:29:32;10.15;;;3.40;;
26113;SDS011;13966;48.828;9.064;2024-02-21T06:31:58;12.30;;;3.22;;
26113;SDS011;13966;48.828;9.064;2024-02-21T06:34:24;9.02;;;3.53;;
26113;SDS011;13966;48.828;9.064;2024-02-21T06:36:50;10.02;;;3.50;;
26113;SDS011;13966;48.828;9.064;2024-02-21T06:39:16;11.15;;;3.50;;
26113;SDS011;13966;48.828;9.064;2024-02-21T06:41:43;11.90;;;4.00;;
26113;SDS011;13966;48.828;9.064;2024-02-21T06:44:09;9.32;;;4.28;;
26113;SDS011;13966;48.828;9.064;2024-02-21T06:46:35;16.77;;;4.03;;
26113;SDS011;13966;48.828;9.064;2024-02-21T06:49:01;12.07;;;4.20;;
26113;SDS011;13966;48.828;9.064;2024-02-21T06:51:30;11.68;;;3.72;;
26113;SDS011;13966;48.828;9.064;2024-02-21T06:53:57;8.45;;;3.40;;
26113;SDS011;13966;48.828;9.064;2024-02-21T06:56:23;7.97;;;3.08;;
26113;SDS011;13966;48.828;9.064;2024-02-21T06:58:56;12.63;;;3.67;;
26113;SDS011;13966;48.828;9.064;2024-02-21T07:01:22;12.35;;;3.83;;
26113;SDS011;13966;48.828;9.064;2024-02-21T07:03:48;10.10;;;3.45;;
26113;SDS011;13966;48.828;9.064;2024-02-21T07:06:14;11.00;;;3.30;;
26113;SDS011;13966;48.828;9.064;2024-02-21T07:08:40;12.77;;;4.13;;
26113;SDS011;13966;48.828;9.064;2024-02-21T07:11:06;12.50;;;4.43;;
26113;SDS011;13966;48.828;9.064;2024-02-21T07:13:32;11.60;;;3.72;;
26113;SDS011;13966;48.828;9.064;2024-02-21T07:15:58;10.23;;;3.70;;
26113;SDS011;13966;48.828;9.064;2024-02-21T07:18:24;8.73;;;3.45;;
26113;SDS011;13966;48.828;9.064;2024-02-21T07:20:51;14.65;;;3.60;;
26113;SDS011;13966;48.828;9.064;2024-02-21T07:23:17;8.07;;;3.53;;
26113;SDS011;13966;48.828;9.064;2024-02-21T07:25:43;11.55;;;3.40;;
26113;SDS011;13966;48.828;9.064;2024-02-21T07:28:09;10.68;;;4.03;;
26113;SDS011;13966;48.828;9.064;2024-02-21T07:30:35;11.95;;;3.78;;
26113;SDS011;13966;48.828;9.064;2024-02-21T07:33:01;12.88;;;3.75;;
26113;SDS011;13966;48.828;9.064;2024-02-21T07:35:27;11.43;;;3.33;;
26113;SDS011;13966;48.828;9.064;2024-02-21T07:37:53;13.10;;;3.28;;
26113;SDS011;13966;48.828;9.064;2024-02-21T07:40:19;10.23;;;3.13;;
26113;SDS011;13966;48.828;9.064;2024-02-21T07:42:45;12.38;;;3.00;;
26113;SDS011;13966;48.828;9.064;2024-02-21T07:45:11;10.48;;;2.72;;
26113;SDS011;13966;48.828;9.064;2024-02-21T07:47:37;8.52;;;2.88;;
26113;SDS011;13966;48.828;9.064;2024-02-21T07:50:03;13.40;;;3.25;;
26113;SDS011;13966;48.828;9.064;2024-02-21T07:52:29;13.70;;;3.25;;
26113;SDS011;13966;48.828;9.064;2024-02-21T07:54:55;7.38;;;2.95;;
26113;SDS011;13966;48.828;9.064;2024-02-21T07:57:21;11.52;;;2.67;;
26113;SDS011;13966;48.828;9.064;2024-02-21T07:59:47;11.93;;;3.22;;
26113;SDS011;13966;48.828;9.064;2024-02-21T08:02:16;10.95;;;3.10;;
26113;SDS011;13966;48.828;9.064;2024-02-21T08:04:42;13.32;;;3.25;;
26113;SDS011;13966;48.828;9.064;2024-02-21T08:07:09;10.48;;;2.75;;
26113;SDS011;13966;48.828;9.064;2024-02-21T08:09:35;9.07;;;2.45;;
26113;SDS011;13966;48.828;9.064;2024-02-21T08:12:03;8.98;;;2.53;;
26113;SDS011;13966;48.828;9.064;2024-02-21T08:14:29;6.05;;;2.42;;
26113;SDS011;13966;48.828;9.064;2024-02-21T08:16:55;10.30;;;3.72;;
26113;SDS011;13966;48.828;9.064;2024-02-21T08:19:21;8.63;;;2.53;;
26113;SDS011;13966;48.828;9.064;2024-02-21T08:21:47;9.70;;;3.28;;
26113;SDS011;13966;48.828;9.064;2024-02-21T08:24:14;14.02;;;2.63;;
26113;SDS011;13966;48.828;9.064;2024-02-21T08:26:40;7.55;;;2.58;;
26113;SDS011;13966;48.828;9.064;2024-02-21T08:29:06;11.57;;;2.97;;
26113;SDS011;13966;48.828;9.064;2024-02-21T08:31:32;11.70;;;2.42;;
26113;SDS011;13966;48.828;9.064;2024-02-21T08:33:59;6.60;;;2.63;;
26113;SDS011;13966;48.828;9.064;2024-02-21T08:36:28;6.95;;;2.47;;
26113;SDS011;13966;48.828;9.064;2024-02-21T08:38:55;9.73;;;2.60;;
26113;SDS011;13966;48.828;9.064;2024-02-21T08:41:21;12.00;;;2.83;;
26113;SDS011;13966;48.828;9.064;2024-02-21T08:43:49;13.30;;;2.40;;
26113;SDS011;13966;48.828;9.064;2024-02-21T08:46:15;7.80;;;2.10;;
26113;SDS011;13966;48.828;9.064;2024-02-21T08:48:41;14.48;;;2.55;;
26113;SDS011;13966;48.828;9.064;2024-02-21T08:51:07;14.40;;;2.60;;
26113;SDS011;13966;48.828;9.064;2024-02-21T08:53:33;9.85;;;2.20;;
26113;SDS011;13966;48.828;9.064;2024-02-21T08:55:59;8.90;;;2.53;;
26113;SDS011;13966;48.828;9.064;2024-02-21T08:58:25;7.85;;;2.50;;
26113;SDS011;13966;48.828;9.064;2024-02-21T09:00:51;8.60;;;2.50;;
26113;SDS011;13966;48.828;9.064;2024-02-21T09:03:17;10.00;;;2.55;;
26113;SDS011;13966;48.828;9.064;2024-02-21T09:05:45;8.05;;;2.13;;
26113;SDS011;13966;48.828;9.064;2024-02-21T09:08:11;8.77;;;2.22;;
26113;SDS011;13966;48.828;9.064;2024-02-21T09:10:39;6.60;;;2.05;;
26113;SDS011;13966;48.828;9.064;2024-02-21T09:13:05;7.15;;;2.28;;
26113;SDS011;13966;48.828;9.064;2024-02-21T09:15:33;13.48;;;3.00;;
26113;SDS011;13966;48.828;9.064;2024-02-21T09:17:59;11.20;;;2.35;;
26113;SDS011;13966;48.828;9.064;2024-02-21T09:20:24;8.95;;;1.92;;
26113;SDS011;13966;48.828;9.064;2024-02-21T09:22:50;7.22;;;2.30;;
26113;SDS011;13966;48.828;9.064;2024-02-21T09:25:17;8.85;;;2.33;;
26113;SDS011;13966;48.828;9.064;2024-02-21T09:27:44;10.02;;;2.25;;
26113;SDS011;13966;48.828;9.064;2024-02-21T09:30:10;13.18;;;3.25;;
26113;SDS011;13966;48.828;9.064;2024-02-21T09:32:37;12.05;;;2.63;;
26113;SDS011;13966;48.828;9.064;2024-02-21T09:35:03;5.28;;;2.25;;
26113;SDS011;13966;48.828;9.064;2024-02-21T09:37:32;11.85;;;2.42;;
26113;SDS011;13966;48.828;9.064;2024-02-21T09:39:59;8.38;;;2.28;;
26113;SDS011;13966;48.828;9.064;2024-02-21T09:42:29;10.45;;;2.20;;
26113;SDS011;13966;48.828;9.064;2024-02-21T09:44:58;9.43;;;2.13;;
26113;SDS011;13966;48.828;9.064;2024-02-21T09:47:24;5.05;;;2.20;;
26113;SDS011;13966;48.828;9.064;2024-02-21T09:49:56;12.80;;;2.50;;
26113;SDS011;13966;48.828;9.064;2024-02-21T09:52:23;7.50;;;2.20;;
26113;SDS011;13966;48.828;9.064;2024-02-21T09:54:50;11.02;;;2.25;;
26113;SDS011;13966;48.828;9.064;2024-02-21T09:57:17;7.53;;;2.53;;
26113;SDS011;13966;48.828;9.064;2024-02-21T09:59:43;6.88;;;2.10;;
26113;SDS011;13966;48.828;9.064;2024-02-21T10:02:11;8.10;;;2.13;;
26113;SDS011;13966;48.828;9.064;2024-02-21T10:04:37;7.90;;;2.50;;
26113;SDS011;13966;48.828;9.064;2024-02-21T10:07:05;8.60;;;2.80;;
26113;SDS011;13966;48.828;9.064;2024-02-21T10:09:32;8.55;;;2.75;;
26113;SDS011;13966;48.828;9.064;2024-02-21T10:12:08;8.27;;;2.17;;
26113;SDS011;13966;48.828;9.064;2024-02-21T10:14:37;7.43;;;2.65;;
26113;SDS011;13966;48.828;9.064;2024-02-21T10:17:03;8.02;;;2.53;;
26113;SDS011;13966;48.828;9.064;2024-02-21T10:19:34;7.57;;;2.17;;
26113;SDS011;13966;48.828;9.064;2024-02-21T10:22:03;7.15;;;2.20;;
26113;SDS011;13966;48.828;9.064;2024-02-21T10:24:30;9.68;;;2.47;;
26113;SDS011;13966;48.828;9.064;2024-02-21T10:29:26;7.63;;;2.28;;
26113;SDS011;13966;48.828;9.064;2024-02-21T10:31:52;7.80;;;2.13;;
26113;SDS011;13966;48.828;9.064;2024-02-21T10:34:18;9.05;;;2.45;;
26113;SDS011;13966;48.828;9.064;2024-02-21T10:36:44;7.30;;;1.90;;
26113;SDS011;13966;48.828;9.064;2024-02-21T10:39:10;6.60;;;1.80;;
26113;SDS011;13966;48.828;9.064;2024-02-21T10:41:36;7.13;;;2.05;;
26113;SDS011;13966;48.828;9.064;2024-02-21T10:44:03;8.18;;;2.30;;
26113;SDS011;13966;48.828;9.064;2024-02-21T10:46:31;6.88;;;2.30;;
26113;SDS011;13966;48.828;9.064;2024-02-21T10:49:22;7.28;;;2.30;;
26113;SDS011;13966;48.828;9.064;2024-02-21T10:51:46;6.07;;;2.20;;
26113;SDS011;13966;48.828;9.064;2024-02-21T10:56:39;10.25;;;2.58;;
26113;SDS011;13966;48.828;9.064;2024-02-21T10:59:06;8.18;;;2.60;;
26113;SDS011;13966;48.828;9.064;2024-02-21T11:01:33;6.47;;;1.73;;
26113;SDS011;13966;48.828;9.064;2024-02-21T11:04:07;6.82;;;1.90;;
26113;SDS011;13966;48.828;9.064;2024-02-21T11:06:35;11.77;;;2.40;;
26113;SDS011;13966;48.828;9.064;2024-02-21T11:09:06;8.73;;;2.33;;
26113;SDS011;13966;48.828;9.064;2024-02-21T11:11:36;4.15;;;1.50;;
26113;SDS011;13966;48.828;9.064;2024-02-21T11:14:03;4.97;;;1.92;;
26113;SDS011;13966;48.828;9.064;2024-02-21T11:16:34;8.70;;;1.95;;
26113;SDS011;13966;48.828;9.064;2024-02-21T11:19:04;4.43;;;1.67;;
26113;SDS011;13966;48.828;9.064;2024-02-21T11:21:33;5.30;;;1.70;;
26113;SDS011;13966;48.828;9.064;2024-02-21T11:24:00;5.32;;;1.75;;
26113;SDS011;13966;48.828;9.064;2024-02-21T11:26:27;5.88;;;1.80;;
26113;SDS011;13966;48.828;9.064;2024-02-21T11:28:57;5.13;;;2.05;;
26113;SDS011;13966;48.828;9.064;2024-02-21T11:31:24;8.43;;;2.00;;
26113;SDS011;13966;48.828;9.064;2024-02-21T11:33:52;9.70;;;2.08;;
26113;SDS011;13966;48.828;9.064;2024-02-21T11:36:27;4.85;;;2.08;;
26113;SDS011;13966;48.828;9.064;2024-02-21T11:38:53;6.55;;;1.90;;
26113;SDS011;13966;48.828;9.064;2024-02-21T11:41:19;5.03;;;1.83;;
26113;SDS011;13966;48.828;9.064;2024-02-21T11:43:46;7.82;;;1.83;;
26113;SDS011;13966;48.828;9.064;2024-02-21T11:46:13;7.82;;;2.35;;
26113;SDS011;13966;48.828;9.064;2024-02-21T11:48:40;6.53;;;1.98;;
26113;SDS011;13966;48.828;9.064;2024-02-21T11:51:08;7.53;;;2.22;;
26113;SDS011;13966;48.828;9.064;2024-02-21T11:53:34;5.70;;;1.70;;
26113;SDS011;13966;48.828;9.064;2024-02-21T11:56:00;11.70;;;2.30;;
26113;SDS011;13966;48.828;9.064;2024-02-21T11:58:26;6.97;;;2.28;;
26113;SDS011;13966;48.828;9.064;2024-02-21T12:00:52;9.80;;;2.15;;
26113;SDS011;13966;48.828;9.064;2024-02-21T12:03:18;6.63;;;2.33;;
26113;SDS011;13966;48.828;9.064;2024-02-21T12:05:44;4.72;;;1.48;;
26113;SDS011;13966;48.828;9.064;2024-02-21T12:08:11;5.72;;;2.13;;
26113;SDS011;13966;48.828;9.064;2024-02-21T12:10:37;6.88;;;2.08;;
26113;SDS011;13966;48.828;9.064;2024-02-21T12:13:07;6.55;;;2.03;;
26113;SDS011;13966;48.828;9.064;2024-02-21T12:15:33;3.88;;;1.55;;
26113;SDS011;13966;48.828;9.064;2024-02-21T12:17:59;5.35;;;1.80;;
26113;SDS011;13966;48.828;9.064;2024-02-21T12:20:25;5.47;;;1.50;;
26113;SDS011;13966;48.828;9.064;2024-02-21T12:22:51;4.35;;;1.80;;
26113;SDS011;13966;48.828;9.064;2024-02-21T12:25:19;4.15;;;1.65;;
26113;SDS011;13966;48.828;9.064;2024-02-21T12:27:47;7.30;;;1.85;;
26113;SDS011;13966;48.828;9.064;2024-02-21T12:30:14;7.65;;;2.17;;
26113;SDS011;13966;48.828;9.064;2024-02-21T12:32:40;6.25;;;2.58;;
26113;SDS011;13966;48.828;9.064;2024-02-21T12:35:06;9.73;;;2.05;;
26113;SDS011;13966;48.828;9.064;2024-02-21T12:37:32;4.65;;;1.52;;
26113;SDS011;13966;48.828;9.064;2024-02-21T12:39:58;9.70;;;2.58;;
26113;SDS011;13966;48.828;9.064;2024-02-21T12:42:25;5.10;;;1.67;;
26113;SDS011;13966;48.828;9.064;2024-02-21T12:44:51;4.50;;;1.70;;
26113;SDS011;13966;48.828;9.064;2024-02-21T12:47:18;6.68;;;2.10;;
26113;SDS011;13966;48.828;9.064;2024-02-21T12:49:45;8.35;;;1.77;;
26113;SDS011;13966;48.828;9.064;2024-02-21T12:52:11;5.75;;;1.48;;
26113;SDS011;13966;48.828;9.064;2024-02-21T12:54:38;4.22;;;1.48;;
26113;SDS011;13966;48.828;9.064;2024-02-21T12:57:04;7.72;;;1.50;;
26113;SDS011;13966;48.828;9.064;2024-02-21T12:59:30;6.15;;;1.88;;
26113;SDS011;13966;48.828;9.064;2024-02-21T13:01:56;7.38;;;1.75;;
26113;SDS011;13966;48.828;9.064;2024-02-21T13:04:22;14.38;;;1.52;;
26113;SDS011;13966;48.828;9.064;2024-02-21T13:06:48;4.32;;;1.38;;
26113;SDS011;13966;48.828;9.064;2024-02-21T13:09:14;4.43;;;1.20;;
26113;SDS011;13966;48.828;9.064;2024-02-21T13:11:41;7.50;;;1.50;;
26113;SDS011;13966;48.828;9.064;2024-02-21T13:14:09;4.47;;;1.60;;
26113;SDS011;13966;48.828;9.064;2024-02-21T13:16:35;6.03;;;1.30;;
26113;SDS011;13966;48.828;9.064;2024-02-21T13:19:04;8.30;;;1.30;;
26113;SDS011;13966;48.828;9.064;2024-02-21T13:21:30;4.25;;;1.33;;
26113;SDS011;13966;48.828;9.064;2024-02-21T13:23:56;5.63;;;1.70;;
26113;SDS011;13966;48.828;9.064;2024-02-21T13:26:22;5.88;;;1.50;;
26113;SDS011;13966;48.828;9.064;2024-02-21T13:28:48;3.65;;;1.23;;
26113;SDS011;13966;48.828;9.064;2024-02-21T13:31:14;5.13;;;1.83;;
26113;SDS011;13966;48.828;9.064;2024-02-21T13:33:43;4.57;;;1.55;;
26113;SDS011;13966;48.828;9.064;2024-02-21T13:36:09;4.63;;;1.52;;
26113;SDS011;13966;48.828;9.064;2024-02-21T13:38:35;4.60;;;1.30;;
26113;SDS011;13966;48.828;9.064;2024-02-21T13:41:03;5.55;;;1.65;;
26113;SDS011;13966;48.828;9.064;2024-02-21T13:43:29;3.63;;;1.33;;
26113;SDS011;13966;48.828;9.064;2024-02-21T13:45:59;3.70;;;1.33;;
26113;SDS011;13966;48.828;9.064;2024-02-21T13:48:27;3.80;;;1.63;;
26113;SDS011;13966;48.828;9.064;2024-02-21T13:50:54;7.07;;;1.40;;
26113;SDS011;13966;48.828;9.064;2024-02-21T13:53:20;5.30;;;1.42;;
26113;SDS011;13966;48.828;9.064;2024-02-21T13:55:47;5.85;;;1.90;;
26113;SDS011;13966;48.828;9.064;2024-02-21T13:58:13;8.48;;;1.67;;
26113;SDS011;13966;48.828;9.064;2024-02-21T14:00:39;4.93;;;1.80;;
26113;SDS011;13966;48.828;9.064;2024-02-21T14:03:05;4.72;;;1.20;;
26113;SDS011;13966;48.828;9.064;2024-02-21T14:05:31;4.57;;;1.70;;
26113;SDS011;13966;48.828;9.064;2024-02-21T14:07:57;4.90;;;1.70;;
26113;SDS011;13966;48.828;9.064;2024-02-21T14:10:23;4.72;;;1.50;;
26113;SDS011;13966;48.828;9.064;2024-02-21T14:12:49;5.15;;;1.35;;
26113;SDS011;13966;48.828;9.064;2024-02-21T14:15:15;4.43;;;1.58;;
26113;SDS011;13966;48.828;9.064;2024-02-21T14:17:41;6.82;;;1.38;;
26113;SDS011;13966;48.828;9.064;2024-02-21T14:20:07;3.92;;;1.20;;
26113;SDS011;13966;48.828;9.064;2024-02-21T14:22:33;2.97;;;1.30;;
26113;SDS011;13966;48.828;9.064;2024-02-21T14:25:02;5.93;;;1.98;;
26113;SDS011;13966;48.828;9.064;2024-02-21T14:27:30;3.95;;;1.60;;
26113;SDS011;13966;48.828;9.064;2024-02-21T14:29:56;7.28;;;1.95;;
26113;SDS011;13966;48.828;9.064;2024-02-21T14:32:22;11.15;;;2.83;;
26113;SDS011;13966;48.828;9.064;2024-02-21T14:34:48;9.15;;;2.75;;
26113;SDS011;13966;48.828;9.064;2024-02-21T14:37:14;7.40;;;2.03;;
26113;SDS011;13966;48.828;9.064;2024-02-21T14:39:40;6.10;;;1.77;;
26113;SDS011;13966;48.828;9.064;2024-02-21T14:42:07;6.43;;;1.70;;